sensor_id;sensor_type;location;lat;lon;timestamp;P1;durP1;ratioP1;P2;durP2;ratioP2
15159;SDS011;7680;48.800;9.680;2023-02-28T00:01:50;6.77;;;6.17;;
15159;SDS011;7680;48.800;9.680;2023-02-28T00:04:23;5.97;;;5.57;;
15159;SDS011;7680;48.800;9.680;2023-02-28T00:06:56;5.90;;;5.40;;
15159;SDS011;7680;48.800;9.680;2023-02-28T00:09:31;6.40;;;5.57;;
15159;SDS011;7680;48.800;9.680;2023-02-28T00:12:04;5.80;;;5.30;;
15159;SDS011;7680;48.800;9.680;2023-02-28T00:14:41;6.37;;;5.87;;
15159;SDS011;7680;48.800;9.680;2023-02-28T00:17:14;6.20;;;5.70;;
15159;SDS011;7680;48.800;9.680;2023-02-28T00:19:49;6.33;;;5.83;;
15159;SDS011;7680;48.800;9.680;2023-02-28T00:22:23;6.03;;;5.53;;
15159;SDS011;7680;48.800;9.680;2023-02-28T00:24:57;6.13;;;5.73;;
15159;SDS011;7680;48.800;9.680;2023-02-28T00:27:30;6.00;;;5.60;;
15159;SDS011;7680;48.800;9.680;2023-02-28T00:30:04;6.27;;;5.77;;
15159;SDS011;7680;48.800;9.680;2023-02-28T00:32:39;6.20;;;5.70;;
15159;SDS011;7680;48.800;9.680;2023-02-28T00:35:12;6.10;;;5.60;;
15159;SDS011;7680;48.800;9.680;2023-02-28T00:37:45;6.50;;;5.90;;
15159;SDS011;7680;48.800;9.680;2023-02-28T00:40:22;6.20;;;5.73;;
15159;SDS011;7680;48.800;9.680;2023-02-28T00:42:55;6.87;;;5.87;;
15159;SDS011;7680;48.800;9.680;2023-02-28T00:45:28;6.70;;;6.20;;
15159;SDS011;7680;48.800;9.680;2023-02-28T00:48:01;7.00;;;6.40;;
15159;SDS011;7680;48.800;9.680;2023-02-28T00:50:35;6.40;;;5.80;;
15159;SDS011;7680;48.800;9.680;2023-02-28T00:53:08;6.70;;;6.20;;
15159;SDS011;7680;48.800;9.680;2023-02-28T00:55:42;6.17;;;5.67;;
15159;SDS011;7680;48.800;9.680;2023-02-28T00:58:15;6.33;;;5.93;;
15159;SDS011;7680;48.800;9.680;2023-02-28T01:00:50;6.80;;;6.20;;
15159;SDS011;7680;48.800;9.680;2023-02-28T01:03:23;6.37;;;5.80;;
15159;SDS011;7680;48.800;9.680;2023-02-28T01:05:57;6.77;;;6.20;;
15159;SDS011;7680;48.800;9.680;2023-02-28T01:08:30;7.13;;;6.53;;
15159;SDS011;7680;48.800;9.680;2023-02-28T01:11:09;6.63;;;6.13;;
15159;SDS011;7680;48.800;9.680;2023-02-28T01:13:44;7.03;;;6.33;;
15159;SDS011;7680;48.800;9.680;2023-02-28T01:16:18;6.37;;;5.87;;
15159;SDS011;7680;48.800;9.680;2023-02-28T01:18:51;6.90;;;6.13;;
15159;SDS011;7680;48.800;9.680;2023-02-28T01:21:24;7.30;;;6.57;;
15159;SDS011;7680;48.800;9.680;2023-02-28T01:23:58;7.30;;;6.70;;
15159;SDS011;7680;48.800;9.680;2023-02-28T01:26:32;6.97;;;6.27;;
15159;SDS011;7680;48.800;9.680;2023-02-28T01:29:06;6.40;;;5.90;;
15159;SDS011;7680;48.800;9.680;2023-02-28T01:31:39;6.73;;;6.23;;
15159;SDS011;7680;48.800;9.680;2023-02-28T01:34:12;6.83;;;6.23;;
15159;SDS011;7680;48.800;9.680;2023-02-28T01:36:45;7.60;;;7.03;;
15159;SDS011;7680;48.800;9.680;2023-02-28T01:39:18;7.50;;;7.00;;
15159;SDS011;7680;48.800;9.680;2023-02-28T01:41:52;7.73;;;7.07;;
15159;SDS011;7680;48.800;9.680;2023-02-28T01:47:38;7.23;;;6.53;;
15159;SDS011;7680;48.800;9.680;2023-02-28T01:50:14;6.57;;;6.07;;
15159;SDS011;7680;48.800;9.680;2023-02-28T01:52:51;6.27;;;5.67;;
15159;SDS011;7680;48.800;9.680;2023-02-28T01:55:27;6.37;;;5.87;;
15159;SDS011;7680;48.800;9.680;2023-02-28T01:58:04;7.13;;;6.43;;
15159;SDS011;7680;48.800;9.680;2023-02-28T02:00:40;7.10;;;6.50;;
15159;SDS011;7680;48.800;9.680;2023-02-28T02:03:14;7.17;;;6.40;;
15159;SDS011;7680;48.800;9.680;2023-02-28T02:05:51;7.27;;;6.57;;
15159;SDS011;7680;48.800;9.680;2023-02-28T02:08:25;7.90;;;7.20;;
15159;SDS011;7680;48.800;9.680;2023-02-28T02:11:00;6.87;;;6.13;;
15159;SDS011;7680;48.800;9.680;2023-02-28T02:13:40;7.10;;;6.50;;
15159;SDS011;7680;48.800;9.680;2023-02-28T02:16:42;7.03;;;6.47;;
15159;SDS011;7680;48.800;9.680;2023-02-28T02:19:52;7.03;;;6.43;;
15159;SDS011;7680;48.800;9.680;2023-02-28T02:23:07;7.63;;;6.90;;
15159;SDS011;7680;48.800;9.680;2023-02-28T02:26:06;7.20;;;6.60;;
15159;SDS011;7680;48.800;9.680;2023-02-28T02:35:49;7.90;;;7.30;;
15159;SDS011;7680;48.800;9.680;2023-02-28T02:38:29;7.70;;;7.10;;
15159;SDS011;7680;48.800;9.680;2023-02-28T02:41:08;8.50;;;7.27;;
15159;SDS011;7680;48.800;9.680;2023-02-28T02:43:47;7.73;;;7.03;;
15159;SDS011;7680;48.800;9.680;2023-02-28T02:46:26;7.87;;;7.27;;
15159;SDS011;7680;48.800;9.680;2023-02-28T02:49:03;7.43;;;6.90;;
15159;SDS011;7680;48.800;9.680;2023-02-28T02:51:41;7.67;;;7.00;;
15159;SDS011;7680;48.800;9.680;2023-02-28T02:54:17;7.13;;;6.53;;
15159;SDS011;7680;48.800;9.680;2023-02-28T02:56:53;7.50;;;6.83;;
15159;SDS011;7680;48.800;9.680;2023-02-28T02:59:27;8.00;;;7.30;;
15159;SDS011;7680;48.800;9.680;2023-02-28T03:02:03;7.83;;;7.10;;
15159;SDS011;7680;48.800;9.680;2023-02-28T03:04:42;8.07;;;7.47;;
15159;SDS011;7680;48.800;9.680;2023-02-28T03:07:20;7.93;;;7.30;;
15159;SDS011;7680;48.800;9.680;2023-02-28T03:09:53;7.80;;;7.20;;
15159;SDS011;7680;48.800;9.680;2023-02-28T03:12:31;8.00;;;7.23;;
15159;SDS011;7680;48.800;9.680;2023-02-28T03:15:13;7.60;;;7.00;;
15159;SDS011;7680;48.800;9.680;2023-02-28T03:17:57;7.63;;;7.03;;
15159;SDS011;7680;48.800;9.680;2023-02-28T03:20:38;7.93;;;7.33;;
15159;SDS011;7680;48.800;9.680;2023-02-28T03:23:21;7.37;;;6.80;;
15159;SDS011;7680;48.800;9.680;2023-02-28T03:26:02;9.17;;;8.27;;
15159;SDS011;7680;48.800;9.680;2023-02-28T03:28:41;7.63;;;7.10;;
15159;SDS011;7680;48.800;9.680;2023-02-28T03:31:25;7.93;;;7.23;;
15159;SDS011;7680;48.800;9.680;2023-02-28T03:34:04;7.27;;;6.67;;
15159;SDS011;7680;48.800;9.680;2023-02-28T03:36:44;8.87;;;8.13;;
15159;SDS011;7680;48.800;9.680;2023-02-28T03:39:22;8.93;;;8.13;;
15159;SDS011;7680;48.800;9.680;2023-02-28T03:42:02;7.93;;;7.23;;
15159;SDS011;7680;48.800;9.680;2023-02-28T03:44:40;8.97;;;8.27;;
15159;SDS011;7680;48.800;9.680;2023-02-28T03:47:16;8.87;;;8.17;;
15159;SDS011;7680;48.800;9.680;2023-02-28T03:49:55;8.83;;;8.13;;
15159;SDS011;7680;48.800;9.680;2023-02-28T03:52:31;8.60;;;8.00;;
15159;SDS011;7680;48.800;9.680;2023-02-28T03:55:13;8.33;;;7.63;;
15159;SDS011;7680;48.800;9.680;2023-02-28T03:57:52;8.40;;;7.70;;
15159;SDS011;7680;48.800;9.680;2023-02-28T04:00:33;8.10;;;7.37;;
15159;SDS011;7680;48.800;9.680;2023-02-28T04:03:09;8.83;;;8.03;;
15159;SDS011;7680;48.800;9.680;2023-02-28T04:05:46;8.67;;;7.83;;
15159;SDS011;7680;48.800;9.680;2023-02-28T04:08:23;8.37;;;7.67;;
15159;SDS011;7680;48.800;9.680;2023-02-28T04:10:58;8.67;;;7.97;;
15159;SDS011;7680;48.800;9.680;2023-02-28T04:13:37;9.77;;;8.97;;
15159;SDS011;7680;48.800;9.680;2023-02-28T04:16:10;9.57;;;8.77;;
15159;SDS011;7680;48.800;9.680;2023-02-28T04:18:54;9.50;;;8.60;;
15159;SDS011;7680;48.800;9.680;2023-02-28T04:21:34;9.13;;;8.43;;
15159;SDS011;7680;48.800;9.680;2023-02-28T04:24:10;9.00;;;8.17;;
15159;SDS011;7680;48.800;9.680;2023-02-28T04:26:48;8.53;;;7.73;;
15159;SDS011;7680;48.800;9.680;2023-02-28T04:29:23;9.10;;;8.30;;
15159;SDS011;7680;48.800;9.680;2023-02-28T04:31:59;9.23;;;8.23;;
15159;SDS011;7680;48.800;9.680;2023-02-28T04:34:33;9.53;;;8.70;;
15159;SDS011;7680;48.800;9.680;2023-02-28T04:37:06;9.33;;;8.53;;
15159;SDS011;7680;48.800;9.680;2023-02-28T04:39:44;10.07;;;9.17;;
15159;SDS011;7680;48.800;9.680;2023-02-28T04:42:18;9.43;;;8.60;;
15159;SDS011;7680;48.800;9.680;2023-02-28T04:44:51;9.50;;;8.53;;
15159;SDS011;7680;48.800;9.680;2023-02-28T04:47:24;9.90;;;9.10;;
15159;SDS011;7680;48.800;9.680;2023-02-28T04:49:57;9.13;;;8.43;;
15159;SDS011;7680;48.800;9.680;2023-02-28T04:52:30;9.40;;;8.57;;
15159;SDS011;7680;48.800;9.680;2023-02-28T04:55:04;10.00;;;9.00;;
15159;SDS011;7680;48.800;9.680;2023-02-28T04:57:39;9.63;;;8.80;;
15159;SDS011;7680;48.800;9.680;2023-02-28T05:00:13;9.93;;;9.03;;
15159;SDS011;7680;48.800;9.680;2023-02-28T05:02:47;9.90;;;9.10;;
15159;SDS011;7680;48.800;9.680;2023-02-28T05:05:20;9.47;;;8.67;;
15159;SDS011;7680;48.800;9.680;2023-02-28T05:07:54;9.83;;;8.87;;
15159;SDS011;7680;48.800;9.680;2023-02-28T05:10:27;9.07;;;8.30;;
15159;SDS011;7680;48.800;9.680;2023-02-28T05:13:02;9.40;;;8.60;;
15159;SDS011;7680;48.800;9.680;2023-02-28T05:15:35;9.40;;;8.60;;
15159;SDS011;7680;48.800;9.680;2023-02-28T05:18:08;10.13;;;9.27;;
15159;SDS011;7680;48.800;9.680;2023-02-28T05:20:41;9.53;;;8.73;;
15159;SDS011;7680;48.800;9.680;2023-02-28T05:23:14;10.43;;;9.43;;
15159;SDS011;7680;48.800;9.680;2023-02-28T05:25:49;11.17;;;10.17;;
15159;SDS011;7680;48.800;9.680;2023-02-28T05:28:24;9.77;;;8.87;;
15159;SDS011;7680;48.800;9.680;2023-02-28T05:30:57;10.33;;;9.33;;
15159;SDS011;7680;48.800;9.680;2023-02-28T05:33:30;10.90;;;9.90;;
15159;SDS011;7680;48.800;9.680;2023-02-28T05:36:04;10.20;;;9.37;;
15159;SDS011;7680;48.800;9.680;2023-02-28T05:38:38;9.93;;;9.13;;
15159;SDS011;7680;48.800;9.680;2023-02-28T05:41:11;10.80;;;9.80;;
15159;SDS011;7680;48.800;9.680;2023-02-28T05:43:46;10.60;;;9.70;;
15159;SDS011;7680;48.800;9.680;2023-02-28T05:46:19;11.37;;;10.27;;
15159;SDS011;7680;48.800;9.680;2023-02-28T05:48:53;11.43;;;10.40;;
15159;SDS011;7680;48.800;9.680;2023-02-28T05:51:27;10.80;;;9.80;;
15159;SDS011;7680;48.800;9.680;2023-02-28T05:54:00;11.50;;;10.40;;
15159;SDS011;7680;48.800;9.680;2023-02-28T05:56:34;10.73;;;9.73;;
15159;SDS011;7680;48.800;9.680;2023-02-28T05:59:10;11.17;;;10.17;;
15159;SDS011;7680;48.800;9.680;2023-02-28T06:01:44;11.50;;;10.50;;
15159;SDS011;7680;48.800;9.680;2023-02-28T06:04:20;11.43;;;10.43;;
15159;SDS011;7680;48.800;9.680;2023-02-28T06:07:02;10.93;;;9.97;;
15159;SDS011;7680;48.800;9.680;2023-02-28T06:09:35;11.83;;;10.83;;
15159;SDS011;7680;48.800;9.680;2023-02-28T06:12:09;12.20;;;11.00;;
15159;SDS011;7680;48.800;9.680;2023-02-28T06:14:44;11.63;;;10.37;;
15159;SDS011;7680;48.800;9.680;2023-02-28T06:17:17;11.63;;;10.30;;
15159;SDS011;7680;48.800;9.680;2023-02-28T06:19:50;11.93;;;10.83;;
15159;SDS011;7680;48.800;9.680;2023-02-28T06:22:24;11.37;;;10.27;;
15159;SDS011;7680;48.800;9.680;2023-02-28T06:24:57;11.13;;;10.03;;
15159;SDS011;7680;48.800;9.680;2023-02-28T06:27:30;11.07;;;10.07;;
15159;SDS011;7680;48.800;9.680;2023-02-28T06:30:06;11.67;;;10.47;;
15159;SDS011;7680;48.800;9.680;2023-02-28T06:32:41;12.20;;;11.10;;
15159;SDS011;7680;48.800;9.680;2023-02-28T06:35:15;11.70;;;10.50;;
15159;SDS011;7680;48.800;9.680;2023-02-28T06:37:48;11.77;;;10.87;;
15159;SDS011;7680;48.800;9.680;2023-02-28T06:40:21;12.07;;;10.83;;
15159;SDS011;7680;48.800;9.680;2023-02-28T06:42:55;12.70;;;11.40;;
15159;SDS011;7680;48.800;9.680;2023-02-28T06:45:29;12.33;;;11.03;;
15159;SDS011;7680;48.800;9.680;2023-02-28T06:48:02;11.50;;;10.40;;
15159;SDS011;7680;48.800;9.680;2023-02-28T06:50:36;11.70;;;10.50;;
15159;SDS011;7680;48.800;9.680;2023-02-28T06:53:09;13.23;;;11.93;;
15159;SDS011;7680;48.800;9.680;2023-02-28T06:55:42;11.93;;;10.73;;
15159;SDS011;7680;48.800;9.680;2023-02-28T06:58:15;12.53;;;11.23;;
15159;SDS011;7680;48.800;9.680;2023-02-28T07:00:51;12.50;;;11.27;;
15159;SDS011;7680;48.800;9.680;2023-02-28T07:03:25;11.83;;;10.73;;
15159;SDS011;7680;48.800;9.680;2023-02-28T07:05:58;12.27;;;11.07;;
15159;SDS011;7680;48.800;9.680;2023-02-28T07:08:32;13.50;;;11.10;;
15159;SDS011;7680;48.800;9.680;2023-02-28T07:11:05;11.60;;;10.50;;
15159;SDS011;7680;48.800;9.680;2023-02-28T07:13:38;12.43;;;11.33;;
15159;SDS011;7680;48.800;9.680;2023-02-28T07:16:12;12.27;;;11.10;;
15159;SDS011;7680;48.800;9.680;2023-02-28T07:18:46;11.67;;;10.47;;
15159;SDS011;7680;48.800;9.680;2023-02-28T07:21:19;13.13;;;11.57;;
15159;SDS011;7680;48.800;9.680;2023-02-28T07:23:52;12.73;;;11.50;;
15159;SDS011;7680;48.800;9.680;2023-02-28T07:26:25;13.13;;;11.87;;
15159;SDS011;7680;48.800;9.680;2023-02-28T07:28:58;13.07;;;11.17;;
15159;SDS011;7680;48.800;9.680;2023-02-28T07:31:32;13.77;;;12.40;;
15159;SDS011;7680;48.800;9.680;2023-02-28T07:34:05;12.00;;;10.90;;
15159;SDS011;7680;48.800;9.680;2023-02-28T07:36:39;11.63;;;10.50;;
15159;SDS011;7680;48.800;9.680;2023-02-28T07:39:12;12.93;;;11.70;;
15159;SDS011;7680;48.800;9.680;2023-02-28T07:41:45;13.63;;;12.33;;
15159;SDS011;7680;48.800;9.680;2023-02-28T07:44:18;12.97;;;11.60;;
15159;SDS011;7680;48.800;9.680;2023-02-28T07:46:53;13.93;;;12.63;;
15159;SDS011;7680;48.800;9.680;2023-02-28T07:49:26;13.20;;;11.83;;
15159;SDS011;7680;48.800;9.680;2023-02-28T07:51:59;12.77;;;11.57;;
15159;SDS011;7680;48.800;9.680;2023-02-28T07:54:32;13.77;;;12.37;;
15159;SDS011;7680;48.800;9.680;2023-02-28T07:57:06;13.37;;;11.97;;
15159;SDS011;7680;48.800;9.680;2023-02-28T07:59:39;12.73;;;11.43;;
15159;SDS011;7680;48.800;9.680;2023-02-28T08:02:13;13.00;;;11.80;;
15159;SDS011;7680;48.800;9.680;2023-02-28T08:04:48;13.57;;;12.27;;
15159;SDS011;7680;48.800;9.680;2023-02-28T08:07:21;13.97;;;12.60;;
15159;SDS011;7680;48.800;9.680;2023-02-28T08:09:54;13.37;;;12.07;;
15159;SDS011;7680;48.800;9.680;2023-02-28T08:12:27;13.07;;;11.77;;
15159;SDS011;7680;48.800;9.680;2023-02-28T08:15:00;13.33;;;12.03;;
15159;SDS011;7680;48.800;9.680;2023-02-28T08:17:34;13.27;;;11.97;;
15159;SDS011;7680;48.800;9.680;2023-02-28T08:20:08;13.87;;;12.40;;
15159;SDS011;7680;48.800;9.680;2023-02-28T08:22:42;13.00;;;11.70;;
15159;SDS011;7680;48.800;9.680;2023-02-28T08:25:16;12.27;;;10.97;;
15159;SDS011;7680;48.800;9.680;2023-02-28T08:27:50;13.17;;;11.80;;
15159;SDS011;7680;48.800;9.680;2023-02-28T08:30:24;13.70;;;12.27;;
15159;SDS011;7680;48.800;9.680;2023-02-28T08:32:58;13.67;;;12.27;;
15159;SDS011;7680;48.800;9.680;2023-02-28T08:35:35;13.83;;;12.43;;
15159;SDS011;7680;48.800;9.680;2023-02-28T08:38:08;13.93;;;12.70;;
15159;SDS011;7680;48.800;9.680;2023-02-28T08:40:41;14.67;;;13.27;;
15159;SDS011;7680;48.800;9.680;2023-02-28T08:43:14;13.73;;;12.50;;
15159;SDS011;7680;48.800;9.680;2023-02-28T08:45:47;14.33;;;12.90;;
15159;SDS011;7680;48.800;9.680;2023-02-28T08:48:25;14.03;;;12.73;;
15159;SDS011;7680;48.800;9.680;2023-02-28T08:51:02;14.80;;;13.30;;
15159;SDS011;7680;48.800;9.680;2023-02-28T08:53:40;15.23;;;13.63;;
15159;SDS011;7680;48.800;9.680;2023-02-28T08:56:13;14.43;;;13.03;;
15159;SDS011;7680;48.800;9.680;2023-02-28T08:58:49;13.80;;;12.60;;
15159;SDS011;7680;48.800;9.680;2023-02-28T09:01:23;13.43;;;12.20;;
15159;SDS011;7680;48.800;9.680;2023-02-28T09:04:01;14.73;;;13.33;;
15159;SDS011;7680;48.800;9.680;2023-02-28T09:06:34;14.13;;;12.73;;
15159;SDS011;7680;48.800;9.680;2023-02-28T09:09:07;14.33;;;12.93;;
15159;SDS011;7680;48.800;9.680;2023-02-28T09:11:40;13.23;;;12.13;;
15159;SDS011;7680;48.800;9.680;2023-02-28T09:14:13;13.67;;;12.27;;
15159;SDS011;7680;48.800;9.680;2023-02-28T09:16:48;14.10;;;12.67;;
15159;SDS011;7680;48.800;9.680;2023-02-28T09:19:23;13.80;;;12.50;;
15159;SDS011;7680;48.800;9.680;2023-02-28T09:21:56;14.60;;;13.20;;
15159;SDS011;7680;48.800;9.680;2023-02-28T09:24:29;13.93;;;12.63;;
15159;SDS011;7680;48.800;9.680;2023-02-28T09:27:03;14.60;;;13.13;;
15159;SDS011;7680;48.800;9.680;2023-02-28T09:29:37;15.07;;;13.53;;
15159;SDS011;7680;48.800;9.680;2023-02-28T09:32:10;14.53;;;13.33;;
15159;SDS011;7680;48.800;9.680;2023-02-28T09:34:45;14.67;;;13.27;;
15159;SDS011;7680;48.800;9.680;2023-02-28T09:37:18;14.40;;;12.47;;
15159;SDS011;7680;48.800;9.680;2023-02-28T09:39:51;14.63;;;13.23;;
15159;SDS011;7680;48.800;9.680;2023-02-28T09:42:25;14.33;;;12.87;;
15159;SDS011;7680;48.800;9.680;2023-02-28T09:45:05;13.90;;;12.70;;
15159;SDS011;7680;48.800;9.680;2023-02-28T09:47:48;14.97;;;13.50;;
15159;SDS011;7680;48.800;9.680;2023-02-28T09:50:30;15.00;;;13.70;;
15159;SDS011;7680;48.800;9.680;2023-02-28T09:53:13;14.50;;;13.10;;
15159;SDS011;7680;48.800;9.680;2023-02-28T09:55:53;14.30;;;12.80;;
15159;SDS011;7680;48.800;9.680;2023-02-28T09:58:32;15.03;;;13.70;;
15159;SDS011;7680;48.800;9.680;2023-02-28T10:01:18;15.20;;;13.60;;
15159;SDS011;7680;48.800;9.680;2023-02-28T10:04:02;14.30;;;12.90;;
15159;SDS011;7680;48.800;9.680;2023-02-28T10:06:43;14.83;;;13.37;;
15159;SDS011;7680;48.800;9.680;2023-02-28T10:09:21;13.90;;;12.47;;
15159;SDS011;7680;48.800;9.680;2023-02-28T10:12:00;14.77;;;13.20;;
15159;SDS011;7680;48.800;9.680;2023-02-28T10:14:45;13.53;;;12.33;;
15159;SDS011;7680;48.800;9.680;2023-02-28T10:17:22;14.43;;;13.00;;
15159;SDS011;7680;48.800;9.680;2023-02-28T10:20:00;14.60;;;13.27;;
15159;SDS011;7680;48.800;9.680;2023-02-28T10:22:44;14.17;;;12.77;;
15159;SDS011;7680;48.800;9.680;2023-02-28T10:25:26;13.70;;;12.43;;
15159;SDS011;7680;48.800;9.680;2023-02-28T10:28:05;13.83;;;12.57;;
15159;SDS011;7680;48.800;9.680;2023-02-28T10:30:43;13.70;;;12.30;;
15159;SDS011;7680;48.800;9.680;2023-02-28T10:33:22;13.80;;;12.57;;
15159;SDS011;7680;48.800;9.680;2023-02-28T10:35:58;14.47;;;13.27;;
15159;SDS011;7680;48.800;9.680;2023-02-28T10:38:33;13.87;;;12.53;;
15159;SDS011;7680;48.800;9.680;2023-02-28T10:41:09;13.97;;;12.67;;
15159;SDS011;7680;48.800;9.680;2023-02-28T10:43:46;14.10;;;12.90;;
15159;SDS011;7680;48.800;9.680;2023-02-28T10:46:19;14.77;;;13.37;;
15159;SDS011;7680;48.800;9.680;2023-02-28T10:49:00;14.47;;;13.00;;
15159;SDS011;7680;48.800;9.680;2023-02-28T10:51:36;15.13;;;13.73;;
15159;SDS011;7680;48.800;9.680;2023-02-28T10:54:16;14.40;;;13.00;;
15159;SDS011;7680;48.800;9.680;2023-02-28T10:57:08;14.03;;;12.73;;
15159;SDS011;7680;48.800;9.680;2023-02-28T10:59:50;14.43;;;13.23;;
15159;SDS011;7680;48.800;9.680;2023-02-28T11:02:31;14.40;;;13.07;;
15159;SDS011;7680;48.800;9.680;2023-02-28T11:05:22;14.17;;;12.77;;
15159;SDS011;7680;48.800;9.680;2023-02-28T11:08:01;14.20;;;12.80;;
15159;SDS011;7680;48.800;9.680;2023-02-28T11:10:43;14.00;;;12.70;;
15159;SDS011;7680;48.800;9.680;2023-02-28T11:13:19;13.80;;;12.50;;
15159;SDS011;7680;48.800;9.680;2023-02-28T11:15:57;14.67;;;13.27;;
15159;SDS011;7680;48.800;9.680;2023-02-28T11:18:35;14.40;;;13.10;;
15159;SDS011;7680;48.800;9.680;2023-02-28T11:21:22;14.07;;;12.77;;
15159;SDS011;7680;48.800;9.680;2023-02-28T11:24:01;15.07;;;13.70;;
15159;SDS011;7680;48.800;9.680;2023-02-28T11:26:40;13.73;;;12.50;;
15159;SDS011;7680;48.800;9.680;2023-02-28T11:29:18;15.27;;;13.87;;
15159;SDS011;7680;48.800;9.680;2023-02-28T11:32:04;14.97;;;13.60;;
15159;SDS011;7680;48.800;9.680;2023-02-28T11:34:46;14.37;;;13.13;;
15159;SDS011;7680;48.800;9.680;2023-02-28T11:37:33;15.53;;;14.13;;
15159;SDS011;7680;48.800;9.680;2023-02-28T11:40:08;14.57;;;13.37;;
15159;SDS011;7680;48.800;9.680;2023-02-28T11:42:52;14.40;;;13.10;;
15159;SDS011;7680;48.800;9.680;2023-02-28T11:45:54;14.17;;;12.77;;
15159;SDS011;7680;48.800;9.680;2023-02-28T11:48:41;14.50;;;13.20;;
15159;SDS011;7680;48.800;9.680;2023-02-28T11:51:26;14.63;;;13.23;;
15159;SDS011;7680;48.800;9.680;2023-02-28T11:54:08;14.17;;;12.77;;
15159;SDS011;7680;48.800;9.680;2023-02-28T11:56:58;13.57;;;12.37;;
15159;SDS011;7680;48.800;9.680;2023-02-28T11:59:45;13.17;;;11.97;;
15159;SDS011;7680;48.800;9.680;2023-02-28T12:02:31;13.93;;;12.73;;
15159;SDS011;7680;48.800;9.680;2023-02-28T12:05:24;14.40;;;12.97;;
15159;SDS011;7680;48.800;9.680;2023-02-28T12:08:06;14.43;;;13.03;;
15159;SDS011;7680;48.800;9.680;2023-02-28T12:11:02;14.07;;;12.73;;
15159;SDS011;7680;48.800;9.680;2023-02-28T12:13:46;13.00;;;11.83;;
15159;SDS011;7680;48.800;9.680;2023-02-28T12:16:49;13.03;;;11.83;;
15159;SDS011;7680;48.800;9.680;2023-02-28T12:19:35;13.57;;;12.37;;
15159;SDS011;7680;48.800;9.680;2023-02-28T12:25:20;13.70;;;12.50;;
15159;SDS011;7680;48.800;9.680;2023-02-28T12:28:15;14.97;;;13.47;;
15159;SDS011;7680;48.800;9.680;2023-02-28T12:30:55;14.00;;;12.63;;
15159;SDS011;7680;48.800;9.680;2023-02-28T12:33:34;14.07;;;12.77;;
15159;SDS011;7680;48.800;9.680;2023-02-28T12:36:13;12.90;;;11.80;;
15159;SDS011;7680;48.800;9.680;2023-02-28T12:38:53;14.00;;;12.73;;
15159;SDS011;7680;48.800;9.680;2023-02-28T12:41:33;13.70;;;12.47;;
15159;SDS011;7680;48.800;9.680;2023-02-28T12:44:12;13.17;;;12.03;;
15159;SDS011;7680;48.800;9.680;2023-02-28T12:46:50;14.13;;;12.73;;
15159;SDS011;7680;48.800;9.680;2023-02-28T12:49:29;13.80;;;12.60;;
15159;SDS011;7680;48.800;9.680;2023-02-28T12:52:05;13.50;;;12.20;;
15159;SDS011;7680;48.800;9.680;2023-02-28T12:54:44;13.93;;;12.53;;
15159;SDS011;7680;48.800;9.680;2023-02-28T12:57:25;13.87;;;12.57;;
15159;SDS011;7680;48.800;9.680;2023-02-28T13:00:10;14.37;;;12.87;;
15159;SDS011;7680;48.800;9.680;2023-02-28T13:06:06;13.33;;;12.13;;
15159;SDS011;7680;48.800;9.680;2023-02-28T13:08:59;12.73;;;11.57;;
15159;SDS011;7680;48.800;9.680;2023-02-28T13:11:39;13.17;;;11.97;;
15159;SDS011;7680;48.800;9.680;2023-02-28T13:14:22;13.23;;;12.03;;
15159;SDS011;7680;48.800;9.680;2023-02-28T13:17:00;14.43;;;12.97;;
15159;SDS011;7680;48.800;9.680;2023-02-28T13:19:43;13.83;;;12.53;;
15159;SDS011;7680;48.800;9.680;2023-02-28T13:22:20;13.60;;;12.37;;
15159;SDS011;7680;48.800;9.680;2023-02-28T13:38:22;13.47;;;12.17;;
15159;SDS011;7680;48.800;9.680;2023-02-28T13:44:19;13.00;;;11.73;;
15159;SDS011;7680;48.800;9.680;2023-02-28T13:50:01;13.43;;;12.23;;
15159;SDS011;7680;48.800;9.680;2023-02-28T13:56:16;13.60;;;12.30;;
15159;SDS011;7680;48.800;9.680;2023-02-28T13:59:01;12.97;;;11.77;;
15159;SDS011;7680;48.800;9.680;2023-02-28T14:01:48;13.60;;;12.20;;
15159;SDS011;7680;48.800;9.680;2023-02-28T14:04:42;14.13;;;12.83;;
15159;SDS011;7680;48.800;9.680;2023-02-28T14:07:27;13.33;;;12.13;;
15159;SDS011;7680;48.800;9.680;2023-02-28T14:10:15;13.67;;;12.47;;
15159;SDS011;7680;48.800;9.680;2023-02-28T14:13:02;13.37;;;12.17;;
15159;SDS011;7680;48.800;9.680;2023-02-28T14:15:48;13.90;;;12.70;;
15159;SDS011;7680;48.800;9.680;2023-02-28T14:18:29;13.77;;;12.57;;
15159;SDS011;7680;48.800;9.680;2023-02-28T14:21:16;14.07;;;12.67;;
15159;SDS011;7680;48.800;9.680;2023-02-28T14:24:03;14.07;;;12.57;;
15159;SDS011;7680;48.800;9.680;2023-02-28T14:27:24;14.03;;;12.57;;
15159;SDS011;7680;48.800;9.680;2023-02-28T14:30:24;12.83;;;11.70;;
15159;SDS011;7680;48.800;9.680;2023-02-28T14:33:19;13.63;;;12.43;;
15159;SDS011;7680;48.800;9.680;2023-02-28T14:36:10;13.17;;;12.07;;
15159;SDS011;7680;48.800;9.680;2023-02-28T14:38:50;13.93;;;12.63;;
15159;SDS011;7680;48.800;9.680;2023-02-28T14:41:28;14.47;;;13.07;;
15159;SDS011;7680;48.800;9.680;2023-02-28T14:44:15;14.30;;;12.83;;
15159;SDS011;7680;48.800;9.680;2023-02-28T14:46:52;12.87;;;11.80;;
15159;SDS011;7680;48.800;9.680;2023-02-28T14:49:28;14.03;;;12.70;;
15159;SDS011;7680;48.800;9.680;2023-02-28T14:52:05;14.93;;;13.63;;
15159;SDS011;7680;48.800;9.680;2023-02-28T14:54:45;14.50;;;13.30;;
15159;SDS011;7680;48.800;9.680;2023-02-28T14:57:25;14.30;;;13.00;;
15159;SDS011;7680;48.800;9.680;2023-02-28T15:00:03;14.67;;;13.37;;
15159;SDS011;7680;48.800;9.680;2023-02-28T15:02:44;14.40;;;13.00;;
15159;SDS011;7680;48.800;9.680;2023-02-28T15:05:25;13.40;;;12.20;;
15159;SDS011;7680;48.800;9.680;2023-02-28T15:08:02;14.43;;;13.13;;
15159;SDS011;7680;48.800;9.680;2023-02-28T15:10:39;15.20;;;13.73;;
15159;SDS011;7680;48.800;9.680;2023-02-28T15:13:15;14.03;;;12.73;;
15159;SDS011;7680;48.800;9.680;2023-02-28T15:15:51;13.83;;;12.57;;
15159;SDS011;7680;48.800;9.680;2023-02-28T15:18:36;14.20;;;12.80;;
15159;SDS011;7680;48.800;9.680;2023-02-28T15:21:17;14.13;;;12.73;;
15159;SDS011;7680;48.800;9.680;2023-02-28T15:23:54;14.30;;;12.90;;
15159;SDS011;7680;48.800;9.680;2023-02-28T15:26:32;13.73;;;12.43;;
15159;SDS011;7680;48.800;9.680;2023-02-28T15:29:10;14.43;;;13.13;;
15159;SDS011;7680;48.800;9.680;2023-02-28T15:31:49;14.63;;;13.33;;
15159;SDS011;7680;48.800;9.680;2023-02-28T15:34:30;14.40;;;13.20;;
15159;SDS011;7680;48.800;9.680;2023-02-28T15:37:36;14.37;;;13.00;;
15159;SDS011;7680;48.800;9.680;2023-02-28T15:40:14;13.80;;;12.50;;
15159;SDS011;7680;48.800;9.680;2023-02-28T15:43:05;13.50;;;12.40;;
15159;SDS011;7680;48.800;9.680;2023-02-28T15:45:45;13.83;;;12.53;;
15159;SDS011;7680;48.800;9.680;2023-02-28T15:48:23;13.70;;;12.50;;
15159;SDS011;7680;48.800;9.680;2023-02-28T15:51:01;13.90;;;12.57;;
15159;SDS011;7680;48.800;9.680;2023-02-28T15:53:39;14.37;;;12.97;;
15159;SDS011;7680;48.800;9.680;2023-02-28T15:56:22;13.40;;;12.10;;
15159;SDS011;7680;48.800;9.680;2023-02-28T15:58:58;14.27;;;12.83;;
15159;SDS011;7680;48.800;9.680;2023-02-28T16:01:35;14.07;;;12.70;;
15159;SDS011;7680;48.800;9.680;2023-02-28T16:04:14;14.30;;;12.97;;
15159;SDS011;7680;48.800;9.680;2023-02-28T16:07:00;13.20;;;11.93;;
15159;SDS011;7680;48.800;9.680;2023-02-28T16:09:34;14.23;;;12.83;;
15159;SDS011;7680;48.800;9.680;2023-02-28T16:12:08;13.63;;;12.30;;
15159;SDS011;7680;48.800;9.680;2023-02-28T16:14:44;15.13;;;13.73;;
15159;SDS011;7680;48.800;9.680;2023-02-28T16:17:19;13.00;;;11.90;;
15159;SDS011;7680;48.800;9.680;2023-02-28T16:19:55;13.63;;;12.37;;
15159;SDS011;7680;48.800;9.680;2023-02-28T16:22:29;13.73;;;12.53;;
15159;SDS011;7680;48.800;9.680;2023-02-28T16:25:02;14.50;;;13.07;;
15159;SDS011;7680;48.800;9.680;2023-02-28T16:27:39;13.80;;;12.50;;